Portada
METAR-TAF:

METAR-TAF

Aeroports :

Vientiane, Laos

latitud: 17-57N, longitud: 102-34E, altitud: 171 m

Observació

L'informe es va fer fa 1 hora i 48 minuts, a les 16:30 UTC
Vent calma
Temperatura 27°C
Humitat 89%
Pressió 1011 hPa
Visibilitat: 4000 m
Núvols disperses a una alçada de 5000 ft
boirina

METAR: VLVT 161630Z 00000KT 4000 BR SCT050 27/25 Q1011 NOSIG

Hora: 01:18 (18:18 UTC)

Pronòstic

L'informe es va fer fa 1 hora i 18 minuts, a les 17:00 UTC
Pronòstic vàlid del 16 a les 18 UTC al 17 a les 18 UTC
Vent 4 kt del Nord/Nord-Oest
Visibilitat: 7000 m
Núvols disperses a una alçada de 2000 ft
Escasses núvols a una alçada de 20000 ft
Temporalment
l' 16 a les 18 UTC al 16 a les 22 UTC
Visibilitat: 4000 m
Escasses núvols a una alçada de 5000 ft
Escasses núvols a una alçada de 20000 ft
boirina

TAF: VLVT 161700Z 1618/1718 34004KT 7000 SCT020 FEW200 TEMPO 1618/1622 4000 BR FEW050 FEW200

Observacions i pronòstics meteorològics de més de 4000 aeroports (METAR i TAF).

Les estacions disponibles són els punts grocs i vermells al mapa.

Posi el ratolí al punt desitjat per veure el nom de l'estació.

Feu clic per veure les observacions i els pronòstics meteorològics.

Per canviar el mapa: feu clic els botons verds amb una creu de color negre per apropar; al botó verd amb un guió per allunyar la imatge; o en les fletxes verdes per a mapes adjacents.


METAR-TAF: